sensor_id;sensor_type;location;lat;lon;timestamp;pressure;altitude;pressure_sealevel;temperature
69785;BMP280;14177;51.520;6.764;2023-06-22T00:00:07;101511.28;;;22.75
69785;BMP280;14177;51.520;6.764;2023-06-22T00:02:52;101515.84;;;22.73
69785;BMP280;14177;51.520;6.764;2023-06-22T00:05:33;101523.13;;;22.70
69785;BMP280;14177;51.520;6.764;2023-06-22T00:08:15;101528.63;;;22.67
69785;BMP280;14177;51.520;6.764;2023-06-22T00:10:56;101529.59;;;22.66
69785;BMP280;14177;51.520;6.764;2023-06-22T00:13:39;101527.69;;;22.68
69785;BMP280;14177;51.520;6.764;2023-06-22T00:16:20;101531.19;;;22.68
69785;BMP280;14177;51.520;6.764;2023-06-22T00:19:01;101531.06;;;22.70
69785;BMP280;14177;51.520;6.764;2023-06-22T00:21:43;101531.19;;;22.68
69785;BMP280;14177;51.520;6.764;2023-06-22T00:24:28;101515.59;;;22.64
69785;BMP280;14177;51.520;6.764;2023-06-22T00:27:07;101516.47;;;22.64
69785;BMP280;14177;51.520;6.764;2023-06-22T00:29:48;101524.72;;;22.60
69785;BMP280;14177;51.520;6.764;2023-06-22T00:32:15;101531.22;;;22.56
69785;BMP280;14177;51.520;6.764;2023-06-22T00:34:59;101533.13;;;22.54
69785;BMP280;14177;51.520;6.764;2023-06-22T00:37:40;101517.31;;;22.52
69785;BMP280;14177;51.520;6.764;2023-06-22T00:40:10;101531.41;;;22.53
69785;BMP280;14177;51.520;6.764;2023-06-22T00:42:38;101520.91;;;22.51
69785;BMP280;14177;51.520;6.764;2023-06-22T00:45:06;101518.38;;;22.50
69785;BMP280;14177;51.520;6.764;2023-06-22T00:47:56;101520.28;;;22.48
69785;BMP280;14177;51.520;6.764;2023-06-22T00:50:39;101519.63;;;22.44
69785;BMP280;14177;51.520;6.764;2023-06-22T00:53:08;101515.41;;;22.42
69785;BMP280;14177;51.520;6.764;2023-06-22T00:55:45;101528.94;;;22.37
69785;BMP280;14177;51.520;6.764;2023-06-22T00:58:27;101520.34;;;22.34
69785;BMP280;14177;51.520;6.764;2023-06-22T01:01:08;101511.66;;;22.32
69785;BMP280;14177;51.520;6.764;2023-06-22T01:03:50;101509.22;;;22.29
69785;BMP280;14177;51.520;6.764;2023-06-22T01:06:39;101510.38;;;22.25
69785;BMP280;14177;51.520;6.764;2023-06-22T01:09:27;101508.69;;;22.24
69785;BMP280;14177;51.520;6.764;2023-06-22T01:12:02;101506.97;;;22.23
69785;BMP280;14177;51.520;6.764;2023-06-22T01:14:55;101498.31;;;22.21
69785;BMP280;14177;51.520;6.764;2023-06-22T01:17:43;101501.16;;;22.18
69785;BMP280;14177;51.520;6.764;2023-06-22T01:20:25;101499.47;;;22.17
69785;BMP280;14177;51.520;6.764;2023-06-22T01:23:47;101493.53;;;22.13
69785;BMP280;14177;51.520;6.764;2023-06-22T01:26:38;101501.78;;;22.09
69785;BMP280;14177;51.520;6.764;2023-06-22T01:29:22;101503.66;;;22.07
69785;BMP280;14177;51.520;6.764;2023-06-22T01:32:05;101497.56;;;22.07
69785;BMP280;14177;51.520;6.764;2023-06-22T01:34:48;101496.88;;;22.03
69785;BMP280;14177;51.520;6.764;2023-06-22T01:37:33;101495.41;;;21.99
69785;BMP280;14177;51.520;6.764;2023-06-22T01:40:15;101501.75;;;21.97
69785;BMP280;14177;51.520;6.764;2023-06-22T01:43:00;101487.31;;;21.88
69785;BMP280;14177;51.520;6.764;2023-06-22T01:45:35;101496.13;;;21.89
69785;BMP280;14177;51.520;6.764;2023-06-22T01:48:02;101497.16;;;21.86
69785;BMP280;14177;51.520;6.764;2023-06-22T01:50:30;101489.44;;;21.83
69785;BMP280;14177;51.520;6.764;2023-06-22T01:52:57;101496.63;;;21.81
69785;BMP280;14177;51.520;6.764;2023-06-22T01:55:25;101496.63;;;21.81
69785;BMP280;14177;51.520;6.764;2023-06-22T01:57:52;101494.94;;;21.80
69785;BMP280;14177;51.520;6.764;2023-06-22T02:00:22;101500.03;;;21.83
69785;BMP280;14177;51.520;6.764;2023-06-22T02:03:22;101487.84;;;21.81
69785;BMP280;14177;51.520;6.764;2023-06-22T02:05:58;101494.00;;;21.81
69785;BMP280;14177;51.520;6.764;2023-06-22T02:08:41;101478.97;;;21.82
69785;BMP280;14177;51.520;6.764;2023-06-22T02:11:11;101483.22;;;21.84
69785;BMP280;14177;51.520;6.764;2023-06-22T02:13:40;101485.88;;;21.84
69785;BMP280;14177;51.520;6.764;2023-06-22T02:16:12;101489.44;;;21.83
69785;BMP280;14177;51.520;6.764;2023-06-22T02:18:50;101490.28;;;21.84
69785;BMP280;14177;51.520;6.764;2023-06-22T02:21:20;101484.16;;;21.83
69785;BMP280;14177;51.520;6.764;2023-06-22T02:23:47;101484.25;;;21.82
69785;BMP280;14177;51.520;6.764;2023-06-22T02:26:17;101491.56;;;21.78
69785;BMP280;14177;51.520;6.764;2023-06-22T02:28:45;101492.50;;;21.77
69785;BMP280;14177;51.520;6.764;2023-06-22T02:31:13;101482.13;;;21.74
69785;BMP280;14177;51.520;6.764;2023-06-22T02:33:39;101485.81;;;21.72
69785;BMP280;14177;51.520;6.764;2023-06-22T02:36:07;101471.09;;;21.68
69785;BMP280;14177;51.520;6.764;2023-06-22T02:38:36;101479.75;;;21.70
69785;BMP280;14177;51.520;6.764;2023-06-22T02:41:03;101488.75;;;21.67
69785;BMP280;14177;51.520;6.764;2023-06-22T02:43:30;101484.41;;;21.66
69785;BMP280;14177;51.520;6.764;2023-06-22T02:45:57;101477.63;;;21.62
69785;BMP280;14177;51.520;6.764;2023-06-22T02:48:24;101481.22;;;21.61
69785;BMP280;14177;51.520;6.764;2023-06-22T02:50:52;101473.66;;;21.55
69785;BMP280;14177;51.520;6.764;2023-06-22T02:53:19;101474.69;;;21.53
69785;BMP280;14177;51.520;6.764;2023-06-22T02:55:47;101480.94;;;21.52
69785;BMP280;14177;51.520;6.764;2023-06-22T02:58:16;101466.34;;;21.46
69785;BMP280;14177;51.520;6.764;2023-06-22T03:00:43;101467.47;;;21.42
69785;BMP280;14177;51.520;6.764;2023-06-22T03:03:10;101472.88;;;21.41
69785;BMP280;14177;51.520;6.764;2023-06-22T03:05:37;101469.38;;;21.40
69785;BMP280;14177;51.520;6.764;2023-06-22T03:08:04;101466.16;;;21.35
69785;BMP280;14177;51.520;6.764;2023-06-22T03:10:33;101462.78;;;21.33
69785;BMP280;14177;51.520;6.764;2023-06-22T03:13:00;101455.78;;;21.32
69785;BMP280;14177;51.520;6.764;2023-06-22T03:15:27;101457.59;;;21.32
69785;BMP280;14177;51.520;6.764;2023-06-22T03:17:56;101450.72;;;21.29
69785;BMP280;14177;51.520;6.764;2023-06-22T03:20:27;101461.28;;;21.29
69785;BMP280;14177;51.520;6.764;2023-06-22T03:23:00;101456.94;;;21.28
69785;BMP280;14177;51.520;6.764;2023-06-22T03:25:28;101459.78;;;21.25
69785;BMP280;14177;51.520;6.764;2023-06-22T03:27:55;101457.13;;;21.25
69785;BMP280;14177;51.520;6.764;2023-06-22T03:30:22;101451.97;;;21.24
69785;BMP280;14177;51.520;6.764;2023-06-22T03:32:51;101445.06;;;21.21
69785;BMP280;14177;51.520;6.764;2023-06-22T03:35:18;101451.28;;;21.20
69785;BMP280;14177;51.520;6.764;2023-06-22T03:37:45;101436.50;;;21.18
69785;BMP280;14177;51.520;6.764;2023-06-22T03:40:12;101436.59;;;21.16
69785;BMP280;14177;51.520;6.764;2023-06-22T03:42:40;101430.56;;;21.14
69785;BMP280;14177;51.520;6.764;2023-06-22T03:45:19;101433.41;;;21.11
69785;BMP280;14177;51.520;6.764;2023-06-22T03:47:46;101434.66;;;21.06
69785;BMP280;14177;51.520;6.764;2023-06-22T03:50:13;101424.38;;;21.01
69785;BMP280;14177;51.520;6.764;2023-06-22T03:52:41;101421.81;;;21.00
69785;BMP280;14177;51.520;6.764;2023-06-22T03:55:08;101421.19;;;20.96
69785;BMP280;14177;51.520;6.764;2023-06-22T03:57:36;101425.53;;;20.97
69785;BMP280;14177;51.520;6.764;2023-06-22T04:00:04;101430.06;;;20.95
69785;BMP280;14177;51.520;6.764;2023-06-22T04:02:37;101425.91;;;20.91
69785;BMP280;14177;51.520;6.764;2023-06-22T04:05:05;101423.28;;;20.91
69785;BMP280;14177;51.520;6.764;2023-06-22T04:07:32;101418.00;;;20.91
69785;BMP280;14177;51.520;6.764;2023-06-22T04:10:14;101421.47;;;20.92
69785;BMP280;14177;51.520;6.764;2023-06-22T04:12:50;101404.88;;;20.90
69785;BMP280;14177;51.520;6.764;2023-06-22T04:15:25;101411.75;;;20.92
69785;BMP280;14177;51.520;6.764;2023-06-22T04:18:07;101417.59;;;20.97
69785;BMP280;14177;51.520;6.764;2023-06-22T04:20:39;101426.09;;;21.02
69785;BMP280;14177;51.520;6.764;2023-06-22T04:23:20;101418.72;;;21.07
69785;BMP280;14177;51.520;6.764;2023-06-22T04:26:01;101422.84;;;21.11
69785;BMP280;14177;51.520;6.764;2023-06-22T04:28:30;101432.91;;;21.19
69785;BMP280;14177;51.520;6.764;2023-06-22T04:31:02;101423.94;;;21.21
69785;BMP280;14177;51.520;6.764;2023-06-22T04:33:34;101428.75;;;21.29
69785;BMP280;14177;51.520;6.764;2023-06-22T04:36:05;101432.88;;;21.33
69785;BMP280;14177;51.520;6.764;2023-06-22T04:38:32;101425.59;;;21.36
69785;BMP280;14177;51.520;6.764;2023-06-22T04:41:02;101433.63;;;21.35
69785;BMP280;14177;51.520;6.764;2023-06-22T04:43:31;101425.38;;;21.39
69785;BMP280;14177;51.520;6.764;2023-06-22T04:46:00;101430.38;;;21.44
69785;BMP280;14177;51.520;6.764;2023-06-22T04:48:34;101427.75;;;21.44
69785;BMP280;14177;51.520;6.764;2023-06-22T04:51:10;101420.66;;;21.44
69785;BMP280;14177;51.520;6.764;2023-06-22T04:53:37;101424.78;;;21.48
69785;BMP280;14177;51.520;6.764;2023-06-22T04:56:04;101411.38;;;21.51
69785;BMP280;14177;51.520;6.764;2023-06-22T04:58:32;101414.44;;;21.58
69785;BMP280;14177;51.520;6.764;2023-06-22T05:00:59;101418.72;;;21.60
69785;BMP280;14177;51.520;6.764;2023-06-22T05:03:26;101427.41;;;21.62
69785;BMP280;14177;51.520;6.764;2023-06-22T05:05:53;101428.34;;;21.61
69785;BMP280;14177;51.520;6.764;2023-06-22T05:08:22;101422.94;;;21.63
69785;BMP280;14177;51.520;6.764;2023-06-22T05:11:07;101426.34;;;21.65
69785;BMP280;14177;51.520;6.764;2023-06-22T05:13:37;101428.16;;;21.64
69785;BMP280;14177;51.520;6.764;2023-06-22T05:16:18;101425.50;;;21.64
69785;BMP280;14177;51.520;6.764;2023-06-22T05:19:04;101431.63;;;21.65
69785;BMP280;14177;51.520;6.764;2023-06-22T05:21:45;101418.53;;;21.63
69785;BMP280;14177;51.520;6.764;2023-06-22T05:24:14;101420.22;;;21.64
69785;BMP280;14177;51.520;6.764;2023-06-22T05:26:55;101425.31;;;21.67
69785;BMP280;14177;51.520;6.764;2023-06-22T05:29:37;101427.75;;;21.70
69785;BMP280;14177;51.520;6.764;2023-06-22T05:32:05;101426.59;;;21.74
69785;BMP280;14177;51.520;6.764;2023-06-22T05:34:32;101425.53;;;21.77
69785;BMP280;14177;51.520;6.764;2023-06-22T05:36:59;101423.75;;;21.77
69785;BMP280;14177;51.520;6.764;2023-06-22T05:39:26;101429.03;;;21.77
69785;BMP280;14177;51.520;6.764;2023-06-22T05:41:53;101435.81;;;21.81
69785;BMP280;14177;51.520;6.764;2023-06-22T05:44:20;101432.50;;;21.78
69785;BMP280;14177;51.520;6.764;2023-06-22T05:46:47;101436.75;;;21.80
69785;BMP280;14177;51.520;6.764;2023-06-22T05:49:15;101435.81;;;21.81
69785;BMP280;14177;51.520;6.764;2023-06-22T05:51:42;101437.72;;;21.79
69785;BMP280;14177;51.520;6.764;2023-06-22T05:54:09;101442.88;;;21.81
69785;BMP280;14177;51.520;6.764;2023-06-22T05:56:37;101452.44;;;21.83
69785;BMP280;14177;51.520;6.764;2023-06-22T05:59:06;101464.59;;;21.86
69785;BMP280;14177;51.520;6.764;2023-06-22T06:01:32;101468.06;;;21.86
69785;BMP280;14177;51.520;6.764;2023-06-22T06:04:04;101466.41;;;21.85
69785;BMP280;14177;51.520;6.764;2023-06-22T06:06:33;101478.63;;;21.86
69785;BMP280;14177;51.520;6.764;2023-06-22T06:09:01;101476.22;;;21.83
69785;BMP280;14177;51.520;6.764;2023-06-22T06:11:28;101485.88;;;21.84
69785;BMP280;14177;51.520;6.764;2023-06-22T06:13:55;101476.22;;;21.83
69785;BMP280;14177;51.520;6.764;2023-06-22T06:16:23;101476.97;;;21.85
69785;BMP280;14177;51.520;6.764;2023-06-22T06:18:49;101476.00;;;21.86
69785;BMP280;14177;51.520;6.764;2023-06-22T06:21:17;101481.28;;;21.86
69785;BMP280;14177;51.520;6.764;2023-06-22T06:23:44;101477.59;;;21.89
69785;BMP280;14177;51.520;6.764;2023-06-22T06:26:11;101477.50;;;21.90
69785;BMP280;14177;51.520;6.764;2023-06-22T06:28:37;101472.94;;;21.92
69785;BMP280;14177;51.520;6.764;2023-06-22T06:31:05;101473.81;;;21.93
69785;BMP280;14177;51.520;6.764;2023-06-22T06:33:34;101469.56;;;21.90
69785;BMP280;14177;51.520;6.764;2023-06-22T06:36:01;101471.38;;;21.90
69785;BMP280;14177;51.520;6.764;2023-06-22T06:38:30;101467.13;;;21.87
69785;BMP280;14177;51.520;6.764;2023-06-22T06:40:58;101459.63;;;21.81
69785;BMP280;14177;51.520;6.764;2023-06-22T06:43:26;101454.72;;;21.75
69785;BMP280;14177;51.520;6.764;2023-06-22T06:45:53;101447.94;;;21.71
69785;BMP280;14177;51.520;6.764;2023-06-22T06:48:20;101455.34;;;21.66
69785;BMP280;14177;51.520;6.764;2023-06-22T06:50:46;101443.34;;;21.61
69785;BMP280;14177;51.520;6.764;2023-06-22T06:53:14;101434.00;;;21.55
69785;BMP280;14177;51.520;6.764;2023-06-22T06:55:40;101434.28;;;21.51
69785;BMP280;14177;51.520;6.764;2023-06-22T06:58:07;101429.31;;;21.46
69785;BMP280;14177;51.520;6.764;2023-06-22T07:00:36;101429.53;;;21.43
69785;BMP280;14177;51.520;6.764;2023-06-22T07:03:03;101427.81;;;21.42
69785;BMP280;14177;51.520;6.764;2023-06-22T07:05:30;101433.13;;;21.42
69785;BMP280;14177;51.520;6.764;2023-06-22T07:07:57;101428.78;;;21.41
69785;BMP280;14177;51.520;6.764;2023-06-22T07:10:24;101426.88;;;21.43
69785;BMP280;14177;51.520;6.764;2023-06-22T07:12:51;101413.59;;;21.45
69785;BMP280;14177;51.520;6.764;2023-06-22T07:15:18;101407.34;;;21.46
69785;BMP280;14177;51.520;6.764;2023-06-22T07:17:45;101403.44;;;21.51
69785;BMP280;14177;51.520;6.764;2023-06-22T07:20:12;101409.34;;;21.55
69785;BMP280;14177;51.520;6.764;2023-06-22T07:22:42;101401.41;;;21.55
69785;BMP280;14177;51.520;6.764;2023-06-22T07:25:09;101398.78;;;21.55
69785;BMP280;14177;51.520;6.764;2023-06-22T07:27:38;101395.19;;;21.56
69785;BMP280;14177;51.520;6.764;2023-06-22T07:30:10;101401.34;;;21.56
69785;BMP280;14177;51.520;6.764;2023-06-22T07:32:37;101397.75;;;21.57
69785;BMP280;14177;51.520;6.764;2023-06-22T07:35:05;101397.75;;;21.57
69785;BMP280;14177;51.520;6.764;2023-06-22T07:37:33;101398.56;;;21.58
69785;BMP280;14177;51.520;6.764;2023-06-22T07:40:02;101403.69;;;21.61
69785;BMP280;14177;51.520;6.764;2023-06-22T07:42:32;101405.31;;;21.63
69785;BMP280;14177;51.520;6.764;2023-06-22T07:45:00;101406.06;;;21.65
69785;BMP280;14177;51.520;6.764;2023-06-22T07:47:27;101417.91;;;21.72
69785;BMP280;14177;51.520;6.764;2023-06-22T07:49:57;101415.81;;;21.77
69785;BMP280;14177;51.520;6.764;2023-06-22T07:52:25;101418.78;;;21.85
69785;BMP280;14177;51.520;6.764;2023-06-22T07:54:54;101410.41;;;21.91
69785;BMP280;14177;51.520;6.764;2023-06-22T07:57:21;101408.22;;;21.98
69785;BMP280;14177;51.520;6.764;2023-06-22T07:59:48;101396.28;;;22.05
69785;BMP280;14177;51.520;6.764;2023-06-22T08:02:15;101403.78;;;22.11
69785;BMP280;14177;51.520;6.764;2023-06-22T08:04:42;101400.94;;;22.13
69785;BMP280;14177;51.520;6.764;2023-06-22T08:07:09;101404.19;;;22.17
69785;BMP280;14177;51.520;6.764;2023-06-22T08:09:37;101390.03;;;22.18
69785;BMP280;14177;51.520;6.764;2023-06-22T08:12:05;101384.72;;;22.18
69785;BMP280;14177;51.520;6.764;2023-06-22T08:14:33;101377.75;;;22.17
69785;BMP280;14177;51.520;6.764;2023-06-22T08:17:03;101375.75;;;22.20
69785;BMP280;14177;51.520;6.764;2023-06-22T08:19:30;101374.53;;;22.24
69785;BMP280;14177;51.520;6.764;2023-06-22T08:21:57;101361.00;;;22.29
69785;BMP280;14177;51.520;6.764;2023-06-22T08:24:24;101357.03;;;22.36
69785;BMP280;14177;51.520;6.764;2023-06-22T08:26:51;101339.00;;;22.41
69785;BMP280;14177;51.520;6.764;2023-06-22T08:29:18;101327.03;;;22.48
69785;BMP280;14177;51.520;6.764;2023-06-22T08:31:45;101315.06;;;22.55
69785;BMP280;14177;51.520;6.764;2023-06-22T08:34:12;101307.59;;;22.60
69785;BMP280;14177;51.520;6.764;2023-06-22T08:36:43;101317.75;;;22.66
69785;BMP280;14177;51.520;6.764;2023-06-22T08:39:15;101319.44;;;22.67
69785;BMP280;14177;51.520;6.764;2023-06-22T08:41:42;101318.47;;;22.68
69785;BMP280;14177;51.520;6.764;2023-06-22T08:44:09;101309.72;;;22.67
69785;BMP280;14177;51.520;6.764;2023-06-22T08:46:36;101310.31;;;22.71
69785;BMP280;14177;51.520;6.764;2023-06-22T08:49:03;101312.13;;;22.70
69785;BMP280;14177;51.520;6.764;2023-06-22T08:51:30;101319.22;;;22.70
69785;BMP280;14177;51.520;6.764;2023-06-22T08:53:57;101304.06;;;22.72
69785;BMP280;14177;51.520;6.764;2023-06-22T08:56:24;101305.88;;;22.71
69785;BMP280;14177;51.520;6.764;2023-06-22T08:58:51;101301.41;;;22.72
69785;BMP280;14177;51.520;6.764;2023-06-22T09:01:21;101297.81;;;22.73
69785;BMP280;14177;51.520;6.764;2023-06-22T09:03:48;101289.53;;;22.77
69785;BMP280;14177;51.520;6.764;2023-06-22T09:06:21;101289.69;;;22.87
69785;BMP280;14177;51.520;6.764;2023-06-22T09:08:48;101291.31;;;22.89
69785;BMP280;14177;51.520;6.764;2023-06-22T09:11:16;101292.63;;;22.95
69785;BMP280;14177;51.520;6.764;2023-06-22T09:13:43;101292.41;;;22.98
69785;BMP280;14177;51.520;6.764;2023-06-22T09:16:10;101304.69;;;22.99
69785;BMP280;14177;51.520;6.764;2023-06-22T09:18:38;101305.44;;;23.01
69785;BMP280;14177;51.520;6.764;2023-06-22T09:21:05;101302.13;;;23.10
69785;BMP280;14177;51.520;6.764;2023-06-22T09:23:32;101298.91;;;23.17
69785;BMP280;14177;51.520;6.764;2023-06-22T09:25:58;101306.31;;;23.25
69785;BMP280;14177;51.520;6.764;2023-06-22T09:28:25;101304.03;;;23.31
69785;BMP280;14177;51.520;6.764;2023-06-22T09:30:53;101301.97;;;23.35
69785;BMP280;14177;51.520;6.764;2023-06-22T09:33:26;101298.34;;;23.36
69785;BMP280;14177;51.520;6.764;2023-06-22T09:35:53;101290.31;;;23.37
69785;BMP280;14177;51.520;6.764;2023-06-22T09:38:19;101296.44;;;23.38
69785;BMP280;14177;51.520;6.764;2023-06-22T09:40:46;101301.50;;;23.40
69785;BMP280;14177;51.520;6.764;2023-06-22T09:43:13;101299.59;;;23.42
69785;BMP280;14177;51.520;6.764;2023-06-22T09:45:40;101294.06;;;23.45
69785;BMP280;14177;51.520;6.764;2023-06-22T09:48:09;101295.41;;;23.51
69785;BMP280;14177;51.520;6.764;2023-06-22T09:50:37;101295.06;;;23.55
69785;BMP280;14177;51.520;6.764;2023-06-22T09:53:04;101295.44;;;23.62
69785;BMP280;14177;51.520;6.764;2023-06-22T09:55:31;101292.19;;;23.69
69785;BMP280;14177;51.520;6.764;2023-06-22T09:57:58;101294.03;;;23.80
69785;BMP280;14177;51.520;6.764;2023-06-22T10:00:24;101283.91;;;23.96
69785;BMP280;14177;51.520;6.764;2023-06-22T10:02:53;101284.41;;;24.12
69785;BMP280;14177;51.520;6.764;2023-06-22T10:05:23;101284.66;;;24.31
69785;BMP280;14177;51.520;6.764;2023-06-22T10:07:51;101279.22;;;24.54
69785;BMP280;14177;51.520;6.764;2023-06-22T10:10:18;101278.78;;;24.80
69785;BMP280;14177;51.520;6.764;2023-06-22T10:12:54;101284.34;;;25.09
69785;BMP280;14177;51.520;6.764;2023-06-22T10:15:21;101278.63;;;25.45
69785;BMP280;14177;51.520;6.764;2023-06-22T10:17:48;101268.97;;;25.85
69785;BMP280;14177;51.520;6.764;2023-06-22T10:20:15;101262.94;;;26.12
69785;BMP280;14177;51.520;6.764;2023-06-22T10:22:45;101259.47;;;26.40
69785;BMP280;14177;51.520;6.764;2023-06-22T10:25:13;101254.09;;;26.61
69785;BMP280;14177;51.520;6.764;2023-06-22T10:27:40;101242.75;;;26.68
69785;BMP280;14177;51.520;6.764;2023-06-22T10:30:12;101241.94;;;26.77
69785;BMP280;14177;51.520;6.764;2023-06-22T10:32:43;101245.16;;;26.90
69785;BMP280;14177;51.520;6.764;2023-06-22T10:35:10;101239.81;;;27.00
69785;BMP280;14177;51.520;6.764;2023-06-22T10:37:40;101235.72;;;27.05
69785;BMP280;14177;51.520;6.764;2023-06-22T10:40:07;101235.63;;;27.16
69785;BMP280;14177;51.520;6.764;2023-06-22T10:42:35;101228.63;;;27.25
69785;BMP280;14177;51.520;6.764;2023-06-22T10:45:01;101230.72;;;27.21
69785;BMP280;14177;51.520;6.764;2023-06-22T10:47:29;101237.59;;;27.14
69785;BMP280;14177;51.520;6.764;2023-06-22T10:49:56;101240.38;;;27.03
69785;BMP280;14177;51.520;6.764;2023-06-22T10:52:22;101248.91;;;26.97
69785;BMP280;14177;51.520;6.764;2023-06-22T10:54:49;101250.06;;;26.85
69785;BMP280;14177;51.520;6.764;2023-06-22T10:57:16;101252.16;;;26.82
69785;BMP280;14177;51.520;6.764;2023-06-22T10:59:43;101255.94;;;26.79
69785;BMP280;14177;51.520;6.764;2023-06-22T11:02:10;101262.13;;;26.70
69785;BMP280;14177;51.520;6.764;2023-06-22T11:04:37;101264.47;;;26.64
69785;BMP280;14177;51.520;6.764;2023-06-22T11:07:04;101266.16;;;26.55
69785;BMP280;14177;51.520;6.764;2023-06-22T11:09:31;101265.31;;;26.55
69785;BMP280;14177;51.520;6.764;2023-06-22T11:11:58;101269.09;;;26.52
69785;BMP280;14177;51.520;6.764;2023-06-22T11:14:26;101261.09;;;26.52
69785;BMP280;14177;51.520;6.764;2023-06-22T11:16:53;101257.03;;;26.48
69785;BMP280;14177;51.520;6.764;2023-06-22T11:19:20;101254.88;;;26.42
69785;BMP280;14177;51.520;6.764;2023-06-22T11:21:47;101241.97;;;26.38
69785;BMP280;14177;51.520;6.764;2023-06-22T11:24:14;101242.63;;;26.30
69785;BMP280;14177;51.520;6.764;2023-06-22T11:26:42;101246.56;;;26.26
69785;BMP280;14177;51.520;6.764;2023-06-22T11:29:09;101242.91;;;26.27
69785;BMP280;14177;51.520;6.764;2023-06-22T11:31:53;101235.63;;;26.29
69785;BMP280;14177;51.520;6.764;2023-06-22T11:34:20;101239.41;;;26.27
69785;BMP280;14177;51.520;6.764;2023-06-22T11:36:47;101246.13;;;26.21
69785;BMP280;14177;51.520;6.764;2023-06-22T11:39:14;101244.72;;;26.17
69785;BMP280;14177;51.520;6.764;2023-06-22T11:41:41;101243.44;;;26.12
69785;BMP280;14177;51.520;6.764;2023-06-22T11:44:09;101252.81;;;26.06
69785;BMP280;14177;51.520;6.764;2023-06-22T11:46:37;101245.22;;;26.02
69785;BMP280;14177;51.520;6.764;2023-06-22T11:49:03;101250.25;;;25.96
69785;BMP280;14177;51.520;6.764;2023-06-22T11:51:30;101258.31;;;25.85
69785;BMP280;14177;51.520;6.764;2023-06-22T11:53:58;101268.81;;;25.66
69785;BMP280;14177;51.520;6.764;2023-06-22T11:56:25;101261.56;;;25.47
69785;BMP280;14177;51.520;6.764;2023-06-22T11:58:54;101238.66;;;25.35
69785;BMP280;14177;51.520;6.764;2023-06-22T12:01:21;101194.13;;;25.28
69785;BMP280;14177;51.520;6.764;2023-06-22T12:03:48;101193.06;;;25.19
69785;BMP280;14177;51.520;6.764;2023-06-22T12:06:15;101177.03;;;25.10
69785;BMP280;14177;51.520;6.764;2023-06-22T12:08:42;101164.06;;;24.96
69785;BMP280;14177;51.520;6.764;2023-06-22T12:11:09;101154.47;;;24.84
69785;BMP280;14177;51.520;6.764;2023-06-22T12:13:36;101162.28;;;24.76
69785;BMP280;14177;51.520;6.764;2023-06-22T12:16:03;101168.09;;;24.70
69785;BMP280;14177;51.520;6.764;2023-06-22T12:18:30;101182.13;;;24.61
69785;BMP280;14177;51.520;6.764;2023-06-22T12:20:57;101165.00;;;24.54
69785;BMP280;14177;51.520;6.764;2023-06-22T12:23:23;101159.69;;;24.54
69785;BMP280;14177;51.520;6.764;2023-06-22T12:25:50;101159.69;;;24.54
69785;BMP280;14177;51.520;6.764;2023-06-22T12:28:17;101157.03;;;24.54
69785;BMP280;14177;51.520;6.764;2023-06-22T12:30:44;101163.66;;;24.60
69785;BMP280;14177;51.520;6.764;2023-06-22T12:33:11;101158.44;;;24.69
69785;BMP280;14177;51.520;6.764;2023-06-22T12:35:38;101161.69;;;24.93
69785;BMP280;14177;51.520;6.764;2023-06-22T12:38:05;101146.56;;;25.34
69785;BMP280;14177;51.520;6.764;2023-06-22T12:40:33;101143.63;;;25.88
69785;BMP280;14177;51.520;6.764;2023-06-22T12:43:00;101130.78;;;26.30
69785;BMP280;14177;51.520;6.764;2023-06-22T12:45:28;101113.00;;;26.40
69785;BMP280;14177;51.520;6.764;2023-06-22T12:47:58;101106.81;;;26.30
69785;BMP280;14177;51.520;6.764;2023-06-22T12:50:26;101097.03;;;26.21
69785;BMP280;14177;51.520;6.764;2023-06-22T12:52:54;101093.38;;;26.13
69785;BMP280;14177;51.520;6.764;2023-06-22T12:55:20;101094.91;;;26.06
69785;BMP280;14177;51.520;6.764;2023-06-22T12:57:48;101093.38;;;26.03
69785;BMP280;14177;51.520;6.764;2023-06-22T13:00:15;101092.50;;;26.03
69785;BMP280;14177;51.520;6.764;2023-06-22T13:02:43;101088.88;;;25.95
69785;BMP280;14177;51.520;6.764;2023-06-22T13:05:09;101091.66;;;25.93
69785;BMP280;14177;51.520;6.764;2023-06-22T13:07:36;101099.09;;;25.90
69785;BMP280;14177;51.520;6.764;2023-06-22T13:10:05;101085.63;;;25.82
69785;BMP280;14177;51.520;6.764;2023-06-22T13:12:32;101085.72;;;25.80
69785;BMP280;14177;51.520;6.764;2023-06-22T13:14:59;101081.97;;;25.83
69785;BMP280;14177;51.520;6.764;2023-06-22T13:17:26;101080.81;;;25.76
69785;BMP280;14177;51.520;6.764;2023-06-22T13:19:53;101082.88;;;25.63
69785;BMP280;14177;51.520;6.764;2023-06-22T13:22:34;101079.31;;;25.43
69785;BMP280;14177;51.520;6.764;2023-06-22T13:25:07;101071.31;;;25.34
69785;BMP280;14177;51.520;6.764;2023-06-22T13:27:34;101075.91;;;25.32
69785;BMP280;14177;51.520;6.764;2023-06-22T13:30:01;101078.13;;;25.27
69785;BMP280;14177;51.520;6.764;2023-06-22T13:32:29;101073.72;;;25.16
69785;BMP280;14177;51.520;6.764;2023-06-22T13:34:56;101078.97;;;25.07
69785;BMP280;14177;51.520;6.764;2023-06-22T13:37:23;101080.59;;;24.98
69785;BMP280;14177;51.520;6.764;2023-06-22T13:39:50;101076.91;;;24.90
69785;BMP280;14177;51.520;6.764;2023-06-22T13:42:17;101081.31;;;24.80
69785;BMP280;14177;51.520;6.764;2023-06-22T13:44:44;101080.44;;;24.70
69785;BMP280;14177;51.520;6.764;2023-06-22T13:47:12;101060.41;;;24.66
69785;BMP280;14177;51.520;6.764;2023-06-22T13:49:38;101056.91;;;24.66
69785;BMP280;14177;51.520;6.764;2023-06-22T13:52:06;101041.31;;;24.72
69785;BMP280;14177;51.520;6.764;2023-06-22T13:54:38;101045.94;;;24.79
69785;BMP280;14177;51.520;6.764;2023-06-22T13:57:05;101043.84;;;24.83
69785;BMP280;14177;51.520;6.764;2023-06-22T13:59:32;101044.47;;;24.86
69785;BMP280;14177;51.520;6.764;2023-06-22T14:01:59;101042.38;;;24.90
69785;BMP280;14177;51.520;6.764;2023-06-22T14:04:26;101030.13;;;24.98
69785;BMP280;14177;51.520;6.764;2023-06-22T14:06:55;101030.16;;;25.08
69785;BMP280;14177;51.520;6.764;2023-06-22T14:09:42;101031.50;;;25.23
69785;BMP280;14177;51.520;6.764;2023-06-22T14:12:10;101025.69;;;25.38